Time;durP1;ratioP1;P1;durP2;ratioP2;P2;SDS_P1;SDS_P2;PMS_P1;PMS_P2;Temp;Humidity;BMP_temperature;BMP_pressure;BME280_temperature;BME280_humidity;BME280_pressure;Samples;Min_cycle;Max_cycle;Signal;HPM_P1;HPM_P2
2021/07/08 08:42:18;;;;;;;11.52;2.70;;;;;;;;;;7094113;27;21094;-86
2021/07/08 08:45:39;;;;;;;20.77;2.92;;;;;;;;;;7073788;27;20077;-87
2021/07/08 08:49:02;;;;;;;8.85;2.28;;;;;;;;;;7091802;27;20622;-86
2021/07/08 08:52:23;;;;;;;7.93;2.65;;;;;;;;;;7073334;27;20447;-87
2021/07/08 08:55:45;;;;;;;7.20;2.97;;;;;;;;;;7091855;27;20089;-87
2021/07/08 08:59:05;;;;;;;5.43;2.60;;;;;;;;;;7091977;27;20848;-87
2021/07/08 09:02:25;;;;;;;4.05;2.60;;;;;;;;;;7086637;27;20543;-87
2021/07/08 09:05:50;;;;;;;8.07;2.90;;;;;;;;;;7091564;27;20058;-83
2021/07/08 09:09:10;;;;;;;6.05;2.40;;;;;;;;;;7073775;27;20279;-84
2021/07/08 09:12:30;;;;;;;10.00;2.38;;;;;;;;;;7095349;27;20065;-83
2021/07/08 09:15:51;;;;;;;10.57;2.40;;;;;;;;;;7095898;27;20043;-83
2021/07/08 09:19:18;;;;;;;7.35;2.33;;;;;;;;;;7094418;27;20051;-81
2021/07/08 09:22:39;;;;;;;9.85;2.30;;;;;;;;;;7093081;27;21064;-82
2021/07/08 09:26:10;;;;;;;3.97;2.30;;;;;;;;;;7091661;27;20058;-79
2021/07/08 09:29:33;;;;;;;7.20;2.17;;;;;;;;;;7081539;27;20050;-81
2021/07/08 09:32:53;;;;;;;5.00;2.28;;;;;;;;;;7091900;27;20054;-82
2021/07/08 09:36:16;;;;;;;11.18;2.05;;;;;;;;;;7092356;27;20162;-81
2021/07/08 09:39:41;;;;;;;9.68;2.65;;;;;;;;;;7090351;27;20054;-81
2021/07/08 09:43:02;;;;;;;7.00;2.25;;;;;;;;;;7090762;27;20181;-81
2021/07/08 09:46:36;;;;;;;16.10;2.30;;;;;;;;;;7097273;27;20041;-78
2021/07/08 09:49:56;;;;;;;70.68;4.43;;;;;;;;;;7122788;27;20584;-77
2021/07/08 09:53:19;;;;;;;31.05;3.05;;;;;;;;;;7110784;27;20043;-79
2021/07/08 09:56:46;;;;;;;20.40;2.75;;;;;;;;;;7111903;27;20043;-78
2021/07/08 10:00:18;;;;;;;9.85;2.10;;;;;;;;;;7111157;27;20543;-77
2021/07/08 10:03:40;;;;;;;12.13;2.63;;;;;;;;;;7098070;27;20046;-78
2021/07/08 10:07:00;;;;;;;12.45;2.20;;;;;;;;;;7111573;27;20053;-77
2021/07/08 10:10:21;;;;;;;6.90;2.58;;;;;;;;;;7093763;27;20058;-77
2021/07/08 10:13:43;;;;;;;5.65;2.05;;;;;;;;;;7076446;27;20050;-80
2021/07/08 10:17:04;;;;;;;13.88;2.63;;;;;;;;;;7070828;27;20613;-79
2021/07/08 10:20:25;;;;;;;9.00;2.53;;;;;;;;;;7051697;27;20078;-79
2021/07/08 10:23:45;;;;;;;4.28;2.22;;;;;;;;;;7051717;27;20093;-79
2021/07/08 10:27:09;;;;;;;5.25;2.15;;;;;;;;;;7067294;27;20437;-80
2021/07/08 10:30:30;;;;;;;6.63;2.17;;;;;;;;;;7051438;27;20058;-81
2021/07/08 10:34:15;;;;;;;3.08;1.92;;;;;;;;;;7048979;27;20050;-81
2021/07/08 10:37:39;;;;;;;9.65;1.98;;;;;;;;;;7044581;27;20467;-79
2021/07/08 10:41:02;;;;;;;6.05;1.90;;;;;;;;;;7067744;27;20621;-79
2021/07/08 10:44:50;;;;;;;4.50;1.80;;;;;;;;;;7062440;27;20475;-79
2021/07/08 10:48:23;;;;;;;7.03;2.03;;;;;;;;;;7059945;27;20446;-80
2021/07/08 10:51:43;;;;;;;8.05;1.80;;;;;;;;;;7069709;27;20620;-80
2021/07/08 10:55:04;;;;;;;5.85;2.00;;;;;;;;;;7070638;27;20054;-79
2021/07/08 10:58:44;;;;;;;4.65;1.75;;;;;;;;;;7070039;27;20383;-80
2021/07/08 11:02:04;;;;;;;2.63;1.67;;;;;;;;;;7056530;27;20055;-78
2021/07/08 11:05:53;;;;;;;2.53;1.67;;;;;;;;;;7068099;27;20054;-79
2021/07/08 11:09:16;;;;;;;3.33;1.50;;;;;;;;;;7057597;27;20054;-79
2021/07/08 11:12:39;;;;;;;3.17;1.90;;;;;;;;;;7062232;27;20483;-80
2021/07/08 11:16:00;;;;;;;5.70;2.00;;;;;;;;;;7061435;27;20379;-80
2021/07/08 11:19:20;;;;;;;5.85;1.70;;;;;;;;;;7060681;27;20495;-79
2021/07/08 11:22:41;;;;;;;2.88;1.92;;;;;;;;;;7069849;27;20120;-79
2021/07/08 11:26:01;;;;;;;5.63;1.80;;;;;;;;;;7070135;27;20543;-79
2021/07/08 11:29:43;;;;;;;3.25;1.80;;;;;;;;;;7049638;27;20458;-79
2021/07/08 11:33:04;;;;;;;2.90;1.52;;;;;;;;;;7058151;27;20051;-79
2021/07/08 11:36:25;;;;;;;6.35;1.80;;;;;;;;;;7062322;27;20407;-80
2021/07/08 11:39:47;;;;;;;4.78;1.67;;;;;;;;;;7045398;27;20356;-79
2021/07/08 11:43:17;;;;;;;4.63;2.03;;;;;;;;;;7069348;27;20043;-79
2021/07/08 11:46:38;;;;;;;4.22;1.70;;;;;;;;;;7067879;27;20154;-79
2021/07/08 11:49:58;;;;;;;2.20;1.70;;;;;;;;;;7054742;27;20046;-79
2021/07/08 11:53:20;;;;;;;2.22;1.52;;;;;;;;;;7064641;27;20042;-79
2021/07/08 11:56:40;;;;;;;4.63;1.83;;;;;;;;;;7066506;27;20055;-78
2021/07/08 12:00:01;;;;;;;5.68;1.98;;;;;;;;;;7056633;27;20046;-79
2021/07/08 12:03:45;;;;;;;3.03;1.85;;;;;;;;;;7068679;27;20165;-78
2021/07/08 12:07:05;;;;;;;3.55;1.95;;;;;;;;;;7060196;27;20050;-78
2021/07/08 12:10:30;;;;;;;2.78;2.00;;;;;;;;;;7068956;27;20047;-80
2021/07/08 12:13:55;;;;;;;4.07;2.03;;;;;;;;;;7068222;27;20149;-79
2021/07/08 12:17:15;;;;;;;4.00;1.67;;;;;;;;;;7065971;27;20491;-79
2021/07/08 12:20:46;;;;;;;2.40;1.75;;;;;;;;;;7050139;27;20049;-79
2021/07/08 12:24:09;;;;;;;5.10;1.70;;;;;;;;;;7071272;27;20046;-79
2021/07/08 12:27:37;;;;;;;3.58;1.80;;;;;;;;;;7067639;27;20057;-81
2021/07/08 12:30:57;;;;;;;4.88;2.30;;;;;;;;;;7069480;27;20145;-81
2021/07/08 12:34:24;;;;;;;6.65;1.83;;;;;;;;;;7058289;27;20054;-80
2021/07/08 12:37:44;;;;;;;6.07;1.67;;;;;;;;;;7055204;27;20045;-79
2021/07/08 12:41:04;;;;;;;3.05;1.90;;;;;;;;;;7068813;27;20055;-78
2021/07/08 12:44:25;;;;;;;8.80;1.65;;;;;;;;;;7068966;27;20078;-78
2021/07/08 12:47:50;;;;;;;2.95;1.50;;;;;;;;;;7065852;27;20804;-77
2021/07/08 12:51:11;;;;;;;9.60;1.60;;;;;;;;;;7067199;27;20063;-78
2021/07/08 12:54:31;;;;;;;2.78;1.80;;;;;;;;;;7066223;27;20047;-79
2021/07/08 12:58:03;;;;;;;4.85;1.92;;;;;;;;;;7058414;27;20041;-78
2021/07/08 13:01:29;;;;;;;12.27;1.77;;;;;;;;;;7080951;27;20471;-79
2021/07/08 13:05:19;;;;;;;19.30;2.20;;;;;;;;;;7105488;27;20035;-77
2021/07/08 13:08:39;;;;;;;25.73;2.70;;;;;;;;;;7082932;27;20087;-77
2021/07/08 13:12:17;;;;;;;6.85;1.85;;;;;;;;;;7107379;27;20034;-77
2021/07/08 13:15:48;;;;;;;11.23;2.10;;;;;;;;;;7105390;27;20046;-79
2021/07/08 13:19:15;;;;;;;19.65;2.50;;;;;;;;;;7108186;27;20114;-77
2021/07/08 13:22:41;;;;;;;30.25;2.85;;;;;;;;;;7104438;27;20093;-76
2021/07/08 13:26:12;;;;;;;13.30;2.63;;;;;;;;;;7115288;22;20042;-76
2021/07/08 13:29:32;;;;;;;11.55;2.40;;;;;;;;;;6964420;28;20057;-76
2021/07/08 13:33:13;;;;;;;9.38;2.00;;;;;;;;;;6967936;28;20109;-76
2021/07/08 13:36:45;;;;;;;13.35;2.83;;;;;;;;;;6969790;28;20098;-76
2021/07/08 13:40:07;;;;;;;15.40;3.60;;;;;;;;;;6975047;28;20497;-76
2021/07/08 13:43:42;;;;;;;20.02;2.72;;;;;;;;;;6966897;28;20052;-76
2021/07/08 13:47:04;;;;;;;15.38;2.83;;;;;;;;;;6970593;28;20045;-79
2021/07/08 13:50:29;;;;;;;13.75;2.92;;;;;;;;;;6977542;28;20059;-79
2021/07/08 13:53:49;;;;;;;11.85;2.33;;;;;;;;;;6973954;28;20116;-78
2021/07/08 13:57:14;;;;;;;9.35;2.35;;;;;;;;;;6981762;28;20080;-78
2021/07/08 14:00:34;;;;;;;8.02;2.38;;;;;;;;;;6970455;28;20084;-78
2021/07/08 14:03:54;;;;;;;12.48;2.63;;;;;;;;;;6970191;28;20620;-80
2021/07/08 14:07:15;;;;;;;13.73;2.60;;;;;;;;;;6984637;28;20110;-79
2021/07/08 14:10:35;;;;;;;12.52;2.42;;;;;;;;;;6969435;28;20045;-79
2021/07/08 14:13:56;;;;;;;13.98;2.28;;;;;;;;;;6971537;28;20138;-80
2021/07/08 14:17:16;;;;;;;8.82;2.00;;;;;;;;;;6969415;28;20446;-79
2021/07/08 14:20:37;;;;;;;6.88;2.33;;;;;;;;;;6969537;28;20528;-80
2021/07/08 14:23:57;;;;;;;11.23;2.55;;;;;;;;;;6968538;28;20048;-79
2021/07/08 14:27:18;;;;;;;4.57;2.13;;;;;;;;;;6969594;28;20124;-80
2021/07/08 14:30:38;;;;;;;11.15;2.20;;;;;;;;;;6968211;28;20136;-79
2021/07/08 14:33:59;;;;;;;7.15;2.20;;;;;;;;;;6968895;28;20048;-80
2021/07/08 14:37:19;;;;;;;10.60;2.45;;;;;;;;;;6969994;28;20499;-80
2021/07/08 14:40:40;;;;;;;9.00;2.42;;;;;;;;;;6969086;28;20128;-79
2021/07/08 14:44:18;;;;;;;5.85;2.28;;;;;;;;;;6981185;28;20113;-80
2021/07/08 14:47:38;;;;;;;6.88;2.28;;;;;;;;;;6980377;28;20048;-81
2021/07/08 14:50:59;;;;;;;6.50;2.15;;;;;;;;;;6969654;28;20049;-79
2021/07/08 14:54:21;;;;;;;8.50;2.10;;;;;;;;;;6970536;28;20130;-80
2021/07/08 14:57:41;;;;;;;6.43;1.90;;;;;;;;;;6976730;28;20052;-80
2021/07/08 15:01:02;;;;;;;3.38;1.80;;;;;;;;;;6976041;28;20095;-79
2021/07/08 15:04:22;;;;;;;4.22;2.03;;;;;;;;;;6983858;28;20044;-80
2021/07/08 15:07:43;;;;;;;6.53;2.08;;;;;;;;;;6969434;28;20056;-80
2021/07/08 15:11:04;;;;;;;3.80;1.90;;;;;;;;;;6984051;28;20055;-80
2021/07/08 15:14:24;;;;;;;3.08;1.70;;;;;;;;;;6968881;28;20049;-79
2021/07/08 15:17:45;;;;;;;3.00;1.77;;;;;;;;;;6968914;28;20179;-79
2021/07/08 15:21:06;;;;;;;11.02;1.90;;;;;;;;;;6968761;28;20047;-80
2021/07/08 15:24:27;;;;;;;5.90;1.70;;;;;;;;;;6968913;28;20037;-80
2021/07/08 15:27:47;;;;;;;3.15;1.60;;;;;;;;;;6968218;28;20406;-81
2021/07/08 15:31:08;;;;;;;6.15;1.98;;;;;;;;;;6969090;28;20049;-79
2021/07/08 15:34:28;;;;;;;5.10;1.70;;;;;;;;;;6968904;28;20048;-80
2021/07/08 15:37:49;;;;;;;4.13;1.80;;;;;;;;;;6969316;28;20491;-78
2021/07/08 15:41:09;;;;;;;9.95;2.00;;;;;;;;;;6968390;28;20040;-78
2021/07/08 15:44:30;;;;;;;4.65;1.50;;;;;;;;;;6982775;28;20474;-79
2021/07/08 15:47:51;;;;;;;5.03;1.95;;;;;;;;;;6982058;28;20048;-79
2021/07/08 15:51:11;;;;;;;9.77;2.13;;;;;;;;;;6967551;28;20106;-78
2021/07/08 15:54:31;;;;;;;6.25;1.70;;;;;;;;;;6968653;28;20053;-79
2021/07/08 15:57:52;;;;;;;5.70;1.70;;;;;;;;;;6975876;28;20055;-79
2021/07/08 16:01:14;;;;;;;5.28;1.65;;;;;;;;;;6981025;28;20052;-78
2021/07/08 16:04:35;;;;;;;2.85;1.60;;;;;;;;;;6973582;28;20048;-78
2021/07/08 16:07:56;;;;;;;2.58;1.52;;;;;;;;;;6967635;28;20375;-79
2021/07/08 16:11:16;;;;;;;2.35;1.50;;;;;;;;;;6968087;28;20586;-79
2021/07/08 16:14:37;;;;;;;3.38;1.80;;;;;;;;;;6968261;28;20037;-79
2021/07/08 16:17:57;;;;;;;2.67;1.45;;;;;;;;;;6967435;28;20041;-79
2021/07/08 16:21:17;;;;;;;6.25;1.80;;;;;;;;;;6981670;28;20064;-79
2021/07/08 16:24:38;;;;;;;4.53;1.30;;;;;;;;;;6967812;28;20056;-78
2021/07/08 16:27:58;;;;;;;2.97;1.50;;;;;;;;;;6968035;28;20069;-80
2021/07/08 16:31:20;;;;;;;3.88;1.55;;;;;;;;;;6967229;28;20060;-79
2021/07/08 16:34:40;;;;;;;4.57;1.70;;;;;;;;;;6971599;28;20070;-79
2021/07/08 16:38:03;;;;;;;4.20;1.40;;;;;;;;;;6981062;28;20076;-78
2021/07/08 16:41:24;;;;;;;2.38;1.30;;;;;;;;;;6978036;28;20040;-79
2021/07/08 16:44:45;;;;;;;2.40;1.77;;;;;;;;;;6967675;28;20491;-79
2021/07/08 16:48:06;;;;;;;3.25;1.55;;;;;;;;;;6967600;28;20104;-78
2021/07/08 16:51:26;;;;;;;6.72;1.50;;;;;;;;;;6967323;28;20045;-78
2021/07/08 16:54:47;;;;;;;2.03;1.20;;;;;;;;;;6967253;28;20052;-78
2021/07/08 16:58:08;;;;;;;2.72;1.45;;;;;;;;;;6978334;28;20131;-79
2021/07/08 17:01:28;;;;;;;3.15;1.40;;;;;;;;;;6970932;28;20074;-77
2021/07/08 17:04:49;;;;;;;2.28;1.33;;;;;;;;;;6972285;28;20037;-78
2021/07/08 17:08:09;;;;;;;2.10;1.02;;;;;;;;;;6971521;28;20402;-79
2021/07/08 17:11:30;;;;;;;2.35;1.30;;;;;;;;;;6971926;28;20057;-79
2021/07/08 17:14:50;;;;;;;2.85;1.30;;;;;;;;;;6971447;28;20045;-79
2021/07/08 17:18:11;;;;;;;2.47;1.40;;;;;;;;;;6971876;28;20045;-80
2021/07/08 17:21:32;;;;;;;2.88;1.20;;;;;;;;;;6971120;28;20083;-79
2021/07/08 17:24:52;;;;;;;2.63;1.30;;;;;;;;;;6971142;28;20044;-78
2021/07/08 17:28:12;;;;;;;2.00;1.08;;;;;;;;;;6971193;28;20102;-78
2021/07/08 17:31:33;;;;;;;3.10;1.38;;;;;;;;;;6971122;28;20146;-78
2021/07/08 17:34:54;;;;;;;2.90;1.00;;;;;;;;;;6970911;28;20041;-80
2021/07/08 17:38:14;;;;;;;2.08;1.30;;;;;;;;;;6971252;28;20080;-79
2021/07/08 17:41:35;;;;;;;3.85;1.42;;;;;;;;;;6970801;28;20049;-80
2021/07/08 17:44:56;;;;;;;1.77;1.30;;;;;;;;;;6970697;28;20064;-79
2021/07/08 17:48:17;;;;;;;1.90;0.93;;;;;;;;;;6970938;28;20064;-80
2021/07/08 17:51:37;;;;;;;2.40;1.35;;;;;;;;;;6969633;28;20415;-80
2021/07/08 17:55:01;;;;;;;1.50;1.20;;;;;;;;;;6970800;28;20090;-80
2021/07/08 17:58:22;;;;;;;2.33;1.30;;;;;;;;;;6983851;28;20052;-79
2021/07/08 18:01:42;;;;;;;4.40;1.08;;;;;;;;;;6971337;28;20471;-79
2021/07/08 18:05:04;;;;;;;1.52;1.38;;;;;;;;;;6970815;28;20045;-79
2021/07/08 18:08:25;;;;;;;1.77;1.10;;;;;;;;;;6972146;28;20110;-80
2021/07/08 18:11:45;;;;;;;2.78;1.30;;;;;;;;;;6970853;28;20041;-79
2021/07/08 18:15:10;;;;;;;2.63;1.48;;;;;;;;;;6971453;28;20052;-82
2021/07/08 18:18:30;;;;;;;3.10;1.50;;;;;;;;;;6970232;28;20098;-81
2021/07/08 18:21:51;;;;;;;3.15;1.88;;;;;;;;;;6970173;28;20044;-79
2021/07/08 18:25:16;;;;;;;3.05;1.70;;;;;;;;;;6966004;28;20053;-78
2021/07/08 18:28:36;;;;;;;3.72;1.70;;;;;;;;;;6963424;28;20470;-80
2021/07/08 18:31:57;;;;;;;4.40;1.70;;;;;;;;;;6969570;28;20533;-79
2021/07/08 18:35:18;;;;;;;2.28;1.55;;;;;;;;;;6975450;28;20160;-79
2021/07/08 18:38:39;;;;;;;3.22;1.63;;;;;;;;;;6975668;28;20041;-78
2021/07/08 18:41:59;;;;;;;3.13;1.50;;;;;;;;;;6973388;28;20055;-79
2021/07/08 18:45:20;;;;;;;4.88;1.70;;;;;;;;;;6967033;28;20128;-80
2021/07/08 18:48:44;;;;;;;4.80;1.40;;;;;;;;;;6968730;28;20040;-82
2021/07/08 18:52:05;;;;;;;7.70;1.50;;;;;;;;;;6969578;28;20098;-81
2021/07/08 18:55:26;;;;;;;6.55;1.50;;;;;;;;;;6969505;28;20049;-82
2021/07/08 18:58:46;;;;;;;14.07;2.50;;;;;;;;;;6969365;28;20398;-82
2021/07/08 19:02:09;;;;;;;4.45;1.92;;;;;;;;;;6969554;28;20055;-82
2021/07/08 19:05:30;;;;;;;9.93;2.28;;;;;;;;;;6969079;28;20410;-81
2021/07/08 19:08:50;;;;;;;8.48;1.90;;;;;;;;;;6969558;28;20509;-80
2021/07/08 19:12:11;;;;;;;10.85;2.00;;;;;;;;;;6969125;28;20098;-81
2021/07/08 19:15:32;;;;;;;5.78;2.08;;;;;;;;;;6965659;28;20052;-80
2021/07/08 19:18:52;;;;;;;6.63;1.52;;;;;;;;;;6969088;28;20049;-79
2021/07/08 19:22:13;;;;;;;6.40;2.05;;;;;;;;;;6965397;28;20053;-79
2021/07/08 19:25:33;;;;;;;15.75;2.05;;;;;;;;;;6966661;28;20103;-80
2021/07/08 19:28:54;;;;;;;4.80;1.60;;;;;;;;;;6967859;28;20037;-80
2021/07/08 19:32:15;;;;;;;6.00;1.88;;;;;;;;;;6967802;28;20059;-80
2021/07/08 19:35:35;;;;;;;2.83;1.30;;;;;;;;;;6965425;28;20462;-80
2021/07/08 19:38:56;;;;;;;4.65;1.85;;;;;;;;;;6966818;28;20132;-80
2021/07/08 19:42:16;;;;;;;5.80;1.88;;;;;;;;;;6968895;28;20410;-80
2021/07/08 19:45:37;;;;;;;4.90;1.40;;;;;;;;;;6970529;28;20135;-80
2021/07/08 19:48:58;;;;;;;4.75;1.60;;;;;;;;;;6967713;28;20106;-80
2021/07/08 19:52:18;;;;;;;2.50;1.30;;;;;;;;;;6968530;28;20114;-81
2021/07/08 19:55:39;;;;;;;3.50;1.38;;;;;;;;;;6966859;28;20114;-80
2021/07/08 19:58:59;;;;;;;1.98;1.52;;;;;;;;;;6982371;28;20582;-80
2021/07/08 20:02:20;;;;;;;2.70;1.27;;;;;;;;;;6965043;28;20044;-80
2021/07/08 20:05:40;;;;;;;3.90;1.20;;;;;;;;;;6962277;28;20091;-80
2021/07/08 20:09:00;;;;;;;6.63;1.88;;;;;;;;;;6967625;28;20091;-80
2021/07/08 20:12:21;;;;;;;3.42;1.75;;;;;;;;;;6969589;28;20410;-81
2021/07/08 20:15:41;;;;;;;2.88;1.30;;;;;;;;;;6972291;28;20037;-80
2021/07/08 20:19:03;;;;;;;5.10;1.55;;;;;;;;;;6967573;28;20067;-80
2021/07/08 20:22:24;;;;;;;5.57;1.50;;;;;;;;;;6967569;28;20059;-78
2021/07/08 20:25:44;;;;;;;3.42;1.50;;;;;;;;;;6966839;28;20045;-79
2021/07/08 20:29:04;;;;;;;4.10;1.60;;;;;;;;;;6968093;28;20123;-78
2021/07/08 20:32:25;;;;;;;7.57;1.40;;;;;;;;;;6966197;28;20479;-81
2021/07/08 20:35:45;;;;;;;4.82;1.50;;;;;;;;;;6966816;28;20451;-81
2021/07/08 20:39:06;;;;;;;5.15;1.70;;;;;;;;;;6968954;28;20126;-81
2021/07/08 20:42:27;;;;;;;4.70;1.83;;;;;;;;;;6953051;28;20056;-81
2021/07/08 20:45:47;;;;;;;3.88;1.42;;;;;;;;;;6964543;28;20172;-81
2021/07/08 20:49:08;;;;;;;7.30;1.63;;;;;;;;;;6967382;28;20048;-81
2021/07/08 20:52:28;;;;;;;5.32;1.60;;;;;;;;;;6965730;28;20053;-81
2021/07/08 20:55:48;;;;;;;7.88;1.50;;;;;;;;;;6963847;28;20052;-81
2021/07/08 20:59:09;;;;;;;2.88;1.60;;;;;;;;;;6970837;28;20514;-81
2021/07/08 21:02:30;;;;;;;3.40;1.67;;;;;;;;;;6967217;28;20084;-81
2021/07/08 21:05:54;;;;;;;9.07;2.20;;;;;;;;;;6967277;28;20499;-81
2021/07/08 21:09:14;;;;;;;3.67;1.30;;;;;;;;;;6965116;28;20088;-81
2021/07/08 21:12:36;;;;;;;4.05;1.70;;;;;;;;;;6967144;28;20041;-81
2021/07/08 21:15:56;;;;;;;4.32;1.25;;;;;;;;;;6963327;28;20072;-81
2021/07/08 21:19:17;;;;;;;5.28;1.35;;;;;;;;;;6980940;28;20052;-80
2021/07/08 21:22:39;;;;;;;2.80;1.33;;;;;;;;;;6963042;28;20052;-80
2021/07/08 21:26:00;;;;;;;7.45;1.40;;;;;;;;;;6966575;28;20503;-80
2021/07/08 21:29:20;;;;;;;3.30;1.30;;;;;;;;;;6951080;28;20044;-81
2021/07/08 21:32:40;;;;;;;2.63;1.35;;;;;;;;;;6952665;28;20515;-82
2021/07/08 21:36:01;;;;;;;3.20;0.93;;;;;;;;;;6966325;28;20056;-78
2021/07/08 21:39:22;;;;;;;7.72;1.45;;;;;;;;;;6961343;28;20060;-79
2021/07/08 21:42:44;;;;;;;4.10;1.33;;;;;;;;;;6957378;28;20136;-79
2021/07/08 21:46:04;;;;;;;4.07;1.20;;;;;;;;;;6966134;28;20056;-79
2021/07/08 21:49:25;;;;;;;3.53;1.42;;;;;;;;;;6968585;28;20052;-79
2021/07/08 21:52:45;;;;;;;1.98;1.15;;;;;;;;;;6970914;28;20053;-78
2021/07/08 21:56:05;;;;;;;3.05;1.45;;;;;;;;;;6970889;28;20056;-79
2021/07/08 21:59:26;;;;;;;3.17;1.10;;;;;;;;;;6988831;28;20205;-79
2021/07/08 22:02:46;;;;;;;3.60;1.48;;;;;;;;;;6970466;28;20044;-79
2021/07/08 22:06:07;;;;;;;2.78;1.23;;;;;;;;;;6970873;28;20407;-79
2021/07/08 22:09:27;;;;;;;2.95;1.20;;;;;;;;;;6968757;28;20053;-79
2021/07/08 22:12:47;;;;;;;4.25;1.55;;;;;;;;;;6956062;28;20049;-80
2021/07/08 22:16:09;;;;;;;6.55;1.30;;;;;;;;;;6969873;28;20045;-81
2021/07/08 22:19:31;;;;;;;5.80;1.40;;;;;;;;;;6969987;28;20547;-80
2021/07/08 22:22:53;;;;;;;2.60;0.90;;;;;;;;;;6969992;28;20123;-80
2021/07/08 22:26:13;;;;;;;2.60;1.20;;;;;;;;;;6974225;28;20052;-80
2021/07/08 22:29:34;;;;;;;2.20;1.10;;;;;;;;;;6979615;28;20080;-80
2021/07/08 22:32:54;;;;;;;3.55;1.33;;;;;;;;;;6970293;28;20064;-79
2021/07/08 22:36:15;;;;;;;2.30;1.10;;;;;;;;;;6969582;28;20490;-80
2021/07/08 22:39:35;;;;;;;43.22;2.00;;;;;;;;;;6983991;28;20052;-78
2021/07/08 22:42:55;;;;;;;22.75;1.30;;;;;;;;;;6969500;28;20128;-79
2021/07/08 22:46:16;;;;;;;23.35;2.80;;;;;;;;;;6969662;28;20083;-80
2021/07/08 22:49:36;;;;;;;7.10;1.20;;;;;;;;;;6965377;28;20056;-80
2021/07/08 22:52:57;;;;;;;3.95;1.30;;;;;;;;;;6968349;28;20509;-80
2021/07/08 22:56:17;;;;;;;8.80;2.35;;;;;;;;;;6969272;28;20147;-79
2021/07/08 22:59:38;;;;;;;3.22;1.02;;;;;;;;;;6983269;28;20406;-80
2021/07/08 23:02:58;;;;;;;4.28;1.52;;;;;;;;;;6969467;28;20037;-80
2021/07/08 23:06:19;;;;;;;3.60;0.98;;;;;;;;;;6969420;28;20049;-80
2021/07/08 23:09:39;;;;;;;3.15;1.27;;;;;;;;;;6969725;28;20143;-80
2021/07/08 23:12:59;;;;;;;11.98;1.90;;;;;;;;;;6969244;28;20140;-79
2021/07/08 23:16:21;;;;;;;2.80;1.02;;;;;;;;;;6969481;28;20455;-80
2021/07/08 23:19:41;;;;;;;4.13;1.45;;;;;;;;;;6968608;28;20056;-80
2021/07/08 23:23:02;;;;;;;1.98;0.98;;;;;;;;;;6969006;28;20045;-79
2021/07/08 23:26:22;;;;;;;2.58;1.02;;;;;;;;;;6968901;28;20132;-79
2021/07/08 23:29:43;;;;;;;1.38;0.98;;;;;;;;;;6967112;28;20055;-79
2021/07/08 23:33:03;;;;;;;2.08;1.10;;;;;;;;;;6968704;28;20037;-79
2021/07/08 23:36:24;;;;;;;2.78;1.27;;;;;;;;;;6968648;28;20138;-79
2021/07/08 23:39:47;;;;;;;1.73;0.90;;;;;;;;;;6968142;28;20079;-79
